Hauptseite
METAR-TAF:

METAR-TAF

Flughäfen :

Turin, Italien

Bric della Croce

Breite: 45-02N, Länge: 007-44E, Höhe: 709 m

Beobachtung

Neuester Wetterbericht von vor 26 Minuten, um 00:55 UTC
Wind 6 kt aus Nordost
Temperatur 3°C
Luftfeuchtigkeit 100%
Luftdruck 1009 hPa
Sichtweite 10 km oder mehr
Aufgelockert bewölkt in der Höhe von 2000 ft
Durchbrochene Bewölkung in der Höhe von 3300 ft

METAR: LIMK 250055Z 04006KT 9999 SCT020 BKN033 03/03 Q1009 RMK OVC VAL NIL VIS MIN 9999

Zeit: 02:21 (01:21 UTC)


TAF: fehlend

Wetterbeobachtungen und Prognosen von mehr als 4000 Flughäfen (METAR und TAF Bericht).

Die verfügbaren Stationen werden durch gelbe und rote Markierungen auf der Karte dargestellt.

Führen Sie die Maus auf sie, um den Namen der Station zu sehen.

Darauf klicken, um die Beobachtung von Wetterbeobachtungen und Prognosen zu sehen.

Um die Karte zu ändern : klicken Sie auf den grünen Tasten mit einem schwarzen Kreuz Zum Vergrößern, auf den grünen Button mit einem Gedankenstrich zu verkleinern, oder auf die grünen Pfeile für benachbarte Karten.


METAR-TAF: